createdAt,value
2022-11-08T00:03:12.792Z,100922.13
2022-11-08T00:08:34.792Z,100926.31
2022-11-08T00:13:55.522Z,100921.75
2022-11-08T00:18:58.864Z,100926.94
2022-11-08T00:24:03.366Z,100912.66
2022-11-08T00:29:06.276Z,100902.84
2022-11-08T00:34:09.443Z,100905.28
2022-11-08T00:39:14.087Z,100894.69
2022-11-08T00:44:17.519Z,100893.69
2022-11-08T00:49:21.008Z,100895.38
2022-11-08T00:54:25.806Z,100894.38
2022-11-08T00:59:29.083Z,100894.28
2022-11-08T01:04:32.450Z,100895.09
2022-11-08T01:09:37.235Z,100888.78
2022-11-08T01:14:40.569Z,100875.53
2022-11-08T01:19:43.729Z,100868.56
2022-11-08T01:24:48.215Z,100864.09
2022-11-08T01:29:51.260Z,100873.69
2022-11-08T01:34:54.318Z,100854.41
2022-11-08T01:39:58.787Z,100840.34
2022-11-08T01:45:03.255Z,100835.97
2022-11-08T01:50:15.576Z,100820.19
2022-11-08T01:55:24.083Z,100811.47
2022-11-08T02:00:27.780Z,100806.22
2022-11-08T02:05:32.580Z,100791.34
2022-11-08T02:10:40.143Z,100788.81
2022-11-08T02:15:43.729Z,100788.72
2022-11-08T02:20:56.382Z,100783.47
2022-11-08T02:26:00.853Z,100781.69
2022-11-08T02:31:04.031Z,100775.47
2022-11-08T02:36:09.065Z,100771.09
2022-11-08T02:41:13.978Z,100778.97
2022-11-08T02:46:17.054Z,100770.06
2022-11-08T02:51:20.269Z,100762.22
2022-11-08T02:56:24.937Z,100753.38
2022-11-08T03:01:28.182Z,100746.34
2022-11-08T03:06:31.189Z,100735.81
2022-11-08T03:11:35.635Z,100726.06
2022-11-08T03:16:38.965Z,100721.53
2022-11-08T03:21:42.258Z,100724.06
2022-11-08T03:26:46.806Z,100714.31
2022-11-08T03:31:49.789Z,100674.81
2022-11-08T03:36:52.709Z,100667.69
2022-11-08T03:41:57.388Z,100660.53
2022-11-08T03:47:01.201Z,100660.50
2022-11-08T03:52:04.484Z,100649.91
2022-11-08T03:57:09.055Z,100644.53
2022-11-08T04:02:12.173Z,100634.84
2022-11-08T04:07:15.354Z,100626.94
2022-11-08T04:12:37.827Z,100633.81
2022-11-08T04:18:09.679Z,100623.19
2022-11-08T04:23:12.943Z,100624.00
2022-11-08T04:28:17.663Z,100620.34
2022-11-08T04:33:21.179Z,100604.50
2022-11-08T04:38:24.382Z,100612.28
2022-11-08T04:43:28.912Z,100606.94
2022-11-08T04:48:32.843Z,100592.84
2022-11-08T04:53:36.311Z,100580.50
2022-11-08T04:58:42.521Z,100576.91
2022-11-08T05:03:47.334Z,100576.88
2022-11-08T05:08:50.536Z,100573.28
2022-11-08T05:13:55.540Z,100574.09
2022-11-08T05:18:59.104Z,100560.94
2022-11-08T05:24:02.842Z,100549.50
2022-11-08T05:29:07.554Z,100550.41
2022-11-08T05:34:10.909Z,100540.63
2022-11-08T05:39:13.985Z,100536.28
2022-11-08T05:44:18.728Z,100528.38
2022-11-08T05:49:21.797Z,100526.63
2022-11-08T05:54:25.014Z,100532.81
2022-11-08T05:59:29.803Z,100531.81
2022-11-08T06:04:32.989Z,100529.16
2022-11-08T06:09:36.029Z,100530.91
2022-11-08T06:14:40.395Z,100517.75
2022-11-08T06:19:43.505Z,100513.22
2022-11-08T06:24:46.654Z,100508.81
2022-11-08T06:29:51.281Z,100510.38
2022-11-08T06:34:54.505Z,100523.44
2022-11-08T06:39:59.046Z,100522.50
2022-11-08T06:45:03.647Z,100532.78
2022-11-08T06:50:08.125Z,100530.13
2022-11-08T06:55:11.301Z,100526.81
2022-11-08T07:00:17.420Z,100525.97
2022-11-08T07:05:20.861Z,100513.59
2022-11-08T07:10:26.150Z,100509.31
2022-11-08T07:15:31.682Z,100497.94
2022-11-08T07:20:35.470Z,100502.44
2022-11-08T07:25:38.932Z,100479.88
2022-11-08T07:30:43.640Z,100486.53
2022-11-08T07:35:48.402Z,100494.09
2022-11-08T07:40:51.673Z,100471.03
2022-11-08T07:45:57.892Z,100476.66
2022-11-08T07:51:00.919Z,100491.09
2022-11-08T07:56:04.332Z,100486.97
2022-11-08T08:01:09.221Z,100494.31
2022-11-08T08:06:12.504Z,100495.53
2022-11-08T08:11:15.757Z,100496.59
2022-11-08T08:16:20.560Z,100502.97
2022-11-08T08:21:23.785Z,100523.34
2022-11-08T08:26:27.066Z,100527.84
2022-11-08T08:31:31.485Z,100511.38
2022-11-08T08:36:34.561Z,100508.03
2022-11-08T08:41:37.820Z,100514.31
2022-11-08T08:46:42.232Z,100496.97
2022-11-08T08:51:45.219Z,100502.50
2022-11-08T08:56:48.289Z,100501.81
2022-11-08T09:01:52.719Z,100490.44
2022-11-08T09:06:56.417Z,100481.72
2022-11-08T09:11:59.451Z,100485.31
2022-11-08T09:17:05.488Z,100504.06
2022-11-08T09:22:08.753Z,100502.25
2022-11-08T09:27:12.214Z,100520.88
2022-11-08T09:32:21.661Z,100513.22
2022-11-08T09:37:36.286Z,100495.03
2022-11-08T09:42:52.089Z,100489.25
2022-11-08T09:48:04.860Z,100477.19
2022-11-08T09:53:16.664Z,100486.03
2022-11-08T09:58:25.113Z,100483.56
2022-11-08T10:03:30.833Z,100474.97
2022-11-08T10:08:41.274Z,100492.78
2022-11-08T10:13:56.834Z,100487.66
2022-11-08T10:19:15.877Z,100495.53
2022-11-08T10:24:28.107Z,100499.84
2022-11-08T10:29:36.508Z,100510.34
2022-11-08T10:34:48.868Z,100497.19
2022-11-08T10:39:56.772Z,100493.72
2022-11-08T10:45:00.413Z,100504.41
2022-11-08T10:50:15.021Z,100483.44
2022-11-08T10:55:27.656Z,100480.00
2022-11-08T11:00:33.295Z,100474.81
2022-11-08T11:05:41.882Z,100466.16
2022-11-08T11:10:46.987Z,100467.84
2022-11-08T11:15:52.085Z,100457.44
2022-11-08T11:21:02.182Z,100458.41
2022-11-08T11:26:06.924Z,100455.09
2022-11-08T11:31:18.192Z,100458.81
2022-11-08T11:36:26.133Z,100465.97
2022-11-08T11:41:36.366Z,100453.88
2022-11-08T11:46:48.689Z,100463.66
2022-11-08T11:51:55.084Z,100450.78
2022-11-08T11:57:02.662Z,100446.47
2022-11-08T12:02:34.624Z,100450.97
2022-11-08T12:07:46.743Z,100435.13
2022-11-08T12:13:03.139Z,100439.66
2022-11-08T12:18:41.616Z,100438.72
2022-11-08T12:24:10.251Z,100444.03
2022-11-08T12:29:24.817Z,100436.06
2022-11-08T12:34:35.821Z,100438.69
2022-11-08T12:39:47.138Z,100447.53
2022-11-08T12:45:23.209Z,100440.47
2022-11-08T12:50:33.117Z,100443.22
2022-11-08T12:55:38.775Z,100438.97
2022-11-08T13:00:44.557Z,100434.53
2022-11-08T13:05:57.991Z,100430.09
2022-11-08T13:11:07.417Z,100432.78
2022-11-08T13:16:15.846Z,100423.16
2022-11-08T13:21:38.464Z,100424.09
2022-11-08T13:26:43.857Z,100402.00
2022-11-08T13:31:53.713Z,100422.38
2022-11-08T13:37:22.873Z,100412.72
2022-11-08T13:42:39.152Z,100422.44
2022-11-08T13:47:54.647Z,100408.25
2022-11-08T13:53:04.649Z,100417.00
2022-11-08T13:58:30.768Z,100405.41
2022-11-08T14:03:56.222Z,100414.22
2022-11-08T14:09:09.213Z,100413.31
2022-11-08T14:14:35.039Z,100400.06
2022-11-08T14:19:40.200Z,100406.19
2022-11-08T14:24:44.633Z,100407.97
2022-11-08T14:30:00.107Z,100416.78
2022-11-08T14:35:14.867Z,100402.63
2022-11-08T14:40:23.434Z,100399.06
2022-11-08T14:45:30.683Z,100407.88
2022-11-08T14:50:35.907Z,100409.59
2022-11-08T14:55:39.248Z,100416.63
2022-11-08T15:00:45.275Z,100420.13
2022-11-08T15:05:55.711Z,100412.22
2022-11-08T15:11:01.740Z,100407.84
2022-11-08T15:16:07.937Z,100411.34
2022-11-08T15:21:27.549Z,100398.16
2022-11-08T15:26:34.898Z,100390.16
2022-11-08T15:31:43.417Z,100392.69
2022-11-08T15:36:46.653Z,100388.16
2022-11-08T15:42:01.015Z,100387.09
2022-11-08T15:47:08.541Z,100380.78
2022-11-08T15:52:11.943Z,100385.91
2022-11-08T15:57:15.196Z,100384.88
2022-11-08T16:02:26.592Z,100379.47
2022-11-08T16:07:29.565Z,100381.94
2022-11-08T16:12:32.927Z,100389.75
2022-11-08T16:17:37.907Z,100388.91
2022-11-08T16:22:41.375Z,100381.88
2022-11-08T16:27:44.470Z,100378.34
2022-11-08T16:32:49.500Z,100385.31
2022-11-08T16:37:53.707Z,100380.66
2022-11-08T16:42:56.835Z,100390.25
2022-11-08T16:48:01.442Z,100380.59
2022-11-08T16:53:04.550Z,100377.84
2022-11-08T16:58:07.551Z,100376.00
2022-11-08T17:03:21.140Z,100355.78
2022-11-08T17:08:25.189Z,100354.84
2022-11-08T17:13:28.291Z,100358.19
2022-11-08T17:18:32.726Z,100357.22
2022-11-08T17:23:35.865Z,100359.75
2022-11-08T17:28:39.457Z,100373.81
2022-11-08T17:33:44.767Z,100367.50
2022-11-08T17:38:47.969Z,100369.25
2022-11-08T17:43:51.260Z,100371.81
2022-11-08T17:48:55.979Z,100378.84
2022-11-08T17:53:58.986Z,100385.81
2022-11-08T17:59:03.135Z,100385.81
2022-11-08T18:04:07.587Z,100383.34
2022-11-08T18:09:11.028Z,100395.72
2022-11-08T18:14:14.322Z,100396.47
2022-11-08T18:19:19.068Z,100389.34
2022-11-08T18:24:22.579Z,100390.19
2022-11-08T18:29:25.573Z,100383.09
2022-11-08T18:34:30.291Z,100388.38
2022-11-08T18:39:33.527Z,100386.66
2022-11-08T18:44:36.727Z,100401.59
2022-11-08T18:49:41.209Z,100392.75
2022-11-08T18:54:45.393Z,100398.81
2022-11-08T18:59:48.669Z,100398.72
2022-11-08T19:04:53.022Z,100390.75
2022-11-08T19:09:56.274Z,100381.81
2022-11-08T19:14:59.927Z,100383.56
2022-11-08T19:20:04.838Z,100375.63
2022-11-08T19:25:09.191Z,100375.53
2022-11-08T19:30:13.395Z,100384.28
2022-11-08T19:35:17.985Z,100382.47
2022-11-08T19:40:21.084Z,100386.78
2022-11-08T19:45:24.179Z,100384.16
2022-11-08T19:50:28.799Z,100377.91
2022-11-08T19:55:32.015Z,100384.03
2022-11-08T20:00:35.218Z,100386.66
2022-11-08T20:05:39.592Z,100391.88
2022-11-08T20:10:42.833Z,100390.94
2022-11-08T20:15:46.003Z,100407.56
2022-11-08T20:20:50.769Z,100414.56
2022-11-08T20:25:53.720Z,100416.31
2022-11-08T20:31:03.489Z,100422.41
2022-11-08T20:36:10.090Z,100416.13
2022-11-08T20:41:15.156Z,100424.94
2022-11-08T20:46:20.245Z,100433.66
2022-11-08T20:51:24.836Z,100433.53
2022-11-08T20:56:29.207Z,100429.97
2022-11-08T21:01:34.621Z,100430.91
2022-11-08T21:06:39.589Z,100440.66
2022-11-08T21:11:42.656Z,100437.06
2022-11-08T21:17:07.215Z,100437.88
2022-11-08T21:22:16.473Z,100438.66
2022-11-08T21:27:19.527Z,100440.31
2022-11-08T21:32:22.541Z,100434.06
2022-11-08T21:37:27.008Z,100445.44
2022-11-08T21:42:30.867Z,100446.25
2022-11-08T21:47:36.457Z,100457.63
2022-11-08T21:52:41.077Z,100458.44
2022-11-08T21:57:45.473Z,100454.09
2022-11-08T22:02:48.560Z,100456.72
2022-11-08T22:07:53.183Z,100442.66
2022-11-08T22:12:56.421Z,100440.03
2022-11-08T22:18:16.390Z,100462.06
2022-11-08T22:23:24.061Z,100466.44
2022-11-08T22:28:27.424Z,100457.78
2022-11-08T22:33:30.761Z,100460.50
2022-11-08T22:38:35.087Z,100446.56
2022-11-08T22:43:38.452Z,100455.38
2022-11-08T22:48:42.189Z,100452.03
2022-11-08T22:53:46.678Z,100454.81
2022-11-08T22:58:49.818Z,100448.00
2022-11-08T23:03:52.881Z,100447.22
2022-11-08T23:08:57.720Z,100443.88
2022-11-08T23:14:17.952Z,100454.63
2022-11-08T23:19:40.128Z,100445.91
2022-11-08T23:24:45.136Z,100432.75
2022-11-08T23:30:06.118Z,100435.47
2022-11-08T23:35:09.897Z,100429.19
2022-11-08T23:40:33.477Z,100445.00
2022-11-08T23:45:36.500Z,100443.31
2022-11-08T23:50:39.851Z,100447.63
2022-11-08T23:55:44.634Z,100446.69
